Terminal Aerodrome Forecast
Issued by NWS Wichita, KS

Home | Current Version | Previous Version | Text Only | Print | Product List | Glossary On
Versions: 1 2 3 4 5 6 7 8 9 10 11 12 13 14 15 16 17 18 19 20 21 22 23 24 25 26
000
FTUS43 KICT 281739
TAFICT
TAF
KICT 281739Z 2818/2918 30012KT P6SM FEW040
     FM290000 VRB05KT P6SM SKC
     FM291000 17007KT P6SM SCT015
      TEMPO 2911/2915 5SM BR BKN015=

USA.gov is the U.S. government's official web portal to all federal, state and local government web resources and services.